sensor_id;sensor_type;location;lat;lon;timestamp;temperature;humidity
16901;DHT22;8567;52.540;6.434;2022-09-03T00:00:32;22.40;44.30
16901;DHT22;8567;52.540;6.434;2022-09-03T00:03:05;22.40;44.30
16901;DHT22;8567;52.540;6.434;2022-09-03T00:05:37;22.40;44.40
16901;DHT22;8567;52.540;6.434;2022-09-03T00:08:09;22.40;44.30
16901;DHT22;8567;52.540;6.434;2022-09-03T00:10:42;22.40;44.30
16901;DHT22;8567;52.540;6.434;2022-09-03T00:13:14;22.40;44.30
16901;DHT22;8567;52.540;6.434;2022-09-03T00:15:42;22.40;44.30
16901;DHT22;8567;52.540;6.434;2022-09-03T00:18:13;22.40;44.30
16901;DHT22;8567;52.540;6.434;2022-09-03T00:20:45;22.30;44.30
16901;DHT22;8567;52.540;6.434;2022-09-03T00:23:19;22.40;44.30
16901;DHT22;8567;52.540;6.434;2022-09-03T00:25:51;22.40;44.30
16901;DHT22;8567;52.540;6.434;2022-09-03T00:28:21;22.30;44.20
16901;DHT22;8567;52.540;6.434;2022-09-03T00:30:58;22.30;44.30
16901;DHT22;8567;52.540;6.434;2022-09-03T00:33:30;22.30;44.20
16901;DHT22;8567;52.540;6.434;2022-09-03T00:36:04;22.40;44.20
16901;DHT22;8567;52.540;6.434;2022-09-03T00:38:36;22.40;44.10
16901;DHT22;8567;52.540;6.434;2022-09-03T00:41:07;22.30;44.10
16901;DHT22;8567;52.540;6.434;2022-09-03T00:43:48;22.40;44.10
16901;DHT22;8567;52.540;6.434;2022-09-03T00:46:23;22.30;44.00
16901;DHT22;8567;52.540;6.434;2022-09-03T00:51:46;22.30;44.00
16901;DHT22;8567;52.540;6.434;2022-09-03T00:54:20;22.30;44.00
16901;DHT22;8567;52.540;6.434;2022-09-03T00:56:55;22.30;44.00
16901;DHT22;8567;52.540;6.434;2022-09-03T00:59:30;22.30;44.00
16901;DHT22;8567;52.540;6.434;2022-09-03T01:02:06;22.30;44.00
16901;DHT22;8567;52.540;6.434;2022-09-03T01:04:46;22.30;44.00
16901;DHT22;8567;52.540;6.434;2022-09-03T01:07:22;22.30;44.00
16901;DHT22;8567;52.540;6.434;2022-09-03T01:10:02;22.30;43.90
16901;DHT22;8567;52.540;6.434;2022-09-03T01:12:38;22.20;43.80
16901;DHT22;8567;52.540;6.434;2022-09-03T01:15:11;22.30;43.90
16901;DHT22;8567;52.540;6.434;2022-09-03T01:17:50;22.20;43.80
16901;DHT22;8567;52.540;6.434;2022-09-03T01:20:30;22.20;43.80
16901;DHT22;8567;52.540;6.434;2022-09-03T01:23:21;22.20;43.80
16901;DHT22;8567;52.540;6.434;2022-09-03T01:25:59;22.20;43.70
16901;DHT22;8567;52.540;6.434;2022-09-03T01:28:48;22.20;43.80
16901;DHT22;8567;52.540;6.434;2022-09-03T01:31:26;22.20;43.70
16901;DHT22;8567;52.540;6.434;2022-09-03T01:34:01;22.20;43.60
16901;DHT22;8567;52.540;6.434;2022-09-03T01:36:37;22.20;43.80
16901;DHT22;8567;52.540;6.434;2022-09-03T01:39:12;22.20;43.70
16901;DHT22;8567;52.540;6.434;2022-09-03T01:41:55;22.20;43.60
16901;DHT22;8567;52.540;6.434;2022-09-03T01:45:09;22.20;43.70
16901;DHT22;8567;52.540;6.434;2022-09-03T01:47:48;22.20;43.40
16901;DHT22;8567;52.540;6.434;2022-09-03T01:50:27;22.20;43.60
16901;DHT22;8567;52.540;6.434;2022-09-03T01:53:04;22.20;43.60
16901;DHT22;8567;52.540;6.434;2022-09-03T01:55:40;22.20;43.60
16901;DHT22;8567;52.540;6.434;2022-09-03T01:58:15;22.20;43.60
16901;DHT22;8567;52.540;6.434;2022-09-03T02:00:47;22.20;43.50
16901;DHT22;8567;52.540;6.434;2022-09-03T02:03:17;22.20;43.50
16901;DHT22;8567;52.540;6.434;2022-09-03T02:05:44;22.20;43.60
16901;DHT22;8567;52.540;6.434;2022-09-03T02:08:12;22.20;43.50
16901;DHT22;8567;52.540;6.434;2022-09-03T02:10:41;22.20;43.60
16901;DHT22;8567;52.540;6.434;2022-09-03T02:13:11;22.20;43.60
16901;DHT22;8567;52.540;6.434;2022-09-03T02:15:40;22.10;43.60
16901;DHT22;8567;52.540;6.434;2022-09-03T02:18:15;22.10;43.60
16901;DHT22;8567;52.540;6.434;2022-09-03T02:20:42;22.10;43.60
16901;DHT22;8567;52.540;6.434;2022-09-03T02:23:10;22.10;43.60
16901;DHT22;8567;52.540;6.434;2022-09-03T02:25:41;22.10;43.50
16901;DHT22;8567;52.540;6.434;2022-09-03T02:28:10;22.10;43.50
16901;DHT22;8567;52.540;6.434;2022-09-03T02:30:39;22.10;43.50
16901;DHT22;8567;52.540;6.434;2022-09-03T02:33:06;22.10;43.50
16901;DHT22;8567;52.540;6.434;2022-09-03T02:35:34;22.10;43.50
16901;DHT22;8567;52.540;6.434;2022-09-03T02:38:09;22.10;43.40
16901;DHT22;8567;52.540;6.434;2022-09-03T02:40:36;22.10;43.30
16901;DHT22;8567;52.540;6.434;2022-09-03T02:43:05;22.10;43.40
16901;DHT22;8567;52.540;6.434;2022-09-03T02:45:35;22.10;43.30
16901;DHT22;8567;52.540;6.434;2022-09-03T02:48:03;22.10;43.40
16901;DHT22;8567;52.540;6.434;2022-09-03T02:50:29;22.10;43.30
16901;DHT22;8567;52.540;6.434;2022-09-03T02:52:58;22.10;43.30
16901;DHT22;8567;52.540;6.434;2022-09-03T02:55:25;22.10;43.40
16901;DHT22;8567;52.540;6.434;2022-09-03T02:57:52;22.10;43.30
16901;DHT22;8567;52.540;6.434;2022-09-03T03:00:19;22.10;43.40
16901;DHT22;8567;52.540;6.434;2022-09-03T03:02:46;22.10;43.20
16901;DHT22;8567;52.540;6.434;2022-09-03T03:05:20;22.10;43.40
16901;DHT22;8567;52.540;6.434;2022-09-03T03:07:50;22.10;43.30
16901;DHT22;8567;52.540;6.434;2022-09-03T03:10:18;22.10;43.30
16901;DHT22;8567;52.540;6.434;2022-09-03T03:12:45;22.10;43.30
16901;DHT22;8567;52.540;6.434;2022-09-03T03:15:12;22.00;43.20
16901;DHT22;8567;52.540;6.434;2022-09-03T03:17:40;22.00;43.30
16901;DHT22;8567;52.540;6.434;2022-09-03T03:20:07;22.00;43.20
16901;DHT22;8567;52.540;6.434;2022-09-03T03:22:34;22.10;43.30
16901;DHT22;8567;52.540;6.434;2022-09-03T03:25:01;22.00;43.20
16901;DHT22;8567;52.540;6.434;2022-09-03T03:27:29;22.00;43.30
16901;DHT22;8567;52.540;6.434;2022-09-03T03:29:55;22.00;43.20
16901;DHT22;8567;52.540;6.434;2022-09-03T03:32:22;22.00;43.20
16901;DHT22;8567;52.540;6.434;2022-09-03T03:34:49;22.00;43.30
16901;DHT22;8567;52.540;6.434;2022-09-03T03:37:16;22.00;43.10
16901;DHT22;8567;52.540;6.434;2022-09-03T03:39:43;22.00;43.10
16901;DHT22;8567;52.540;6.434;2022-09-03T03:42:09;22.00;43.00
16901;DHT22;8567;52.540;6.434;2022-09-03T03:44:37;22.00;43.10
16901;DHT22;8567;52.540;6.434;2022-09-03T03:47:04;22.00;43.10
16901;DHT22;8567;52.540;6.434;2022-09-03T03:49:31;22.00;43.10
16901;DHT22;8567;52.540;6.434;2022-09-03T03:51:58;22.00;43.10
16901;DHT22;8567;52.540;6.434;2022-09-03T03:54:25;22.00;43.10
16901;DHT22;8567;52.540;6.434;2022-09-03T03:56:52;22.00;43.00
16901;DHT22;8567;52.540;6.434;2022-09-03T03:59:18;22.00;42.90
16901;DHT22;8567;52.540;6.434;2022-09-03T04:01:46;22.00;43.00
16901;DHT22;8567;52.540;6.434;2022-09-03T04:04:15;22.00;43.00
16901;DHT22;8567;52.540;6.434;2022-09-03T04:06:42;22.00;43.00
16901;DHT22;8567;52.540;6.434;2022-09-03T04:09:09;22.00;42.90
16901;DHT22;8567;52.540;6.434;2022-09-03T04:11:36;22.00;42.90
16901;DHT22;8567;52.540;6.434;2022-09-03T04:14:03;21.90;42.90
16901;DHT22;8567;52.540;6.434;2022-09-03T04:16:30;21.90;42.70
16901;DHT22;8567;52.540;6.434;2022-09-03T04:18:59;21.90;42.90
16901;DHT22;8567;52.540;6.434;2022-09-03T04:21:28;21.90;42.90
16901;DHT22;8567;52.540;6.434;2022-09-03T04:23:55;21.90;42.90
16901;DHT22;8567;52.540;6.434;2022-09-03T04:26:25;21.90;42.80
16901;DHT22;8567;52.540;6.434;2022-09-03T04:28:52;21.90;42.80
16901;DHT22;8567;52.540;6.434;2022-09-03T04:31:20;21.90;42.80
16901;DHT22;8567;52.540;6.434;2022-09-03T04:33:47;21.90;42.70
16901;DHT22;8567;52.540;6.434;2022-09-03T04:36:17;21.90;42.70
16901;DHT22;8567;52.540;6.434;2022-09-03T04:38:46;21.90;42.70
16901;DHT22;8567;52.540;6.434;2022-09-03T04:41:14;21.90;42.70
16901;DHT22;8567;52.540;6.434;2022-09-03T04:43:41;21.90;42.70
16901;DHT22;8567;52.540;6.434;2022-09-03T04:46:10;21.90;42.70
16901;DHT22;8567;52.540;6.434;2022-09-03T04:48:38;21.90;42.50
16901;DHT22;8567;52.540;6.434;2022-09-03T04:51:07;21.90;42.70
16901;DHT22;8567;52.540;6.434;2022-09-03T04:53:36;21.90;42.60
16901;DHT22;8567;52.540;6.434;2022-09-03T04:56:11;21.80;42.60
16901;DHT22;8567;52.540;6.434;2022-09-03T04:58:38;21.90;42.60
16901;DHT22;8567;52.540;6.434;2022-09-03T05:01:07;21.90;42.50
16901;DHT22;8567;52.540;6.434;2022-09-03T05:03:33;21.80;42.50
16901;DHT22;8567;52.540;6.434;2022-09-03T05:06:02;21.80;42.60
16901;DHT22;8567;52.540;6.434;2022-09-03T05:08:30;21.80;42.50
16901;DHT22;8567;52.540;6.434;2022-09-03T05:11:03;21.80;42.50
16901;DHT22;8567;52.540;6.434;2022-09-03T05:13:32;21.80;42.50
16901;DHT22;8567;52.540;6.434;2022-09-03T05:15:59;21.80;42.50
16901;DHT22;8567;52.540;6.434;2022-09-03T05:18:27;21.80;42.40
16901;DHT22;8567;52.540;6.434;2022-09-03T05:20:58;21.80;42.40
16901;DHT22;8567;52.540;6.434;2022-09-03T05:23:25;21.80;42.50
16901;DHT22;8567;52.540;6.434;2022-09-03T05:25:55;21.80;42.40
16901;DHT22;8567;52.540;6.434;2022-09-03T05:28:24;21.80;42.50
16901;DHT22;8567;52.540;6.434;2022-09-03T05:30:58;21.80;42.40
16901;DHT22;8567;52.540;6.434;2022-09-03T05:33:24;21.80;42.40
16901;DHT22;8567;52.540;6.434;2022-09-03T05:35:53;21.80;42.40
16901;DHT22;8567;52.540;6.434;2022-09-03T05:38:20;21.80;42.50
16901;DHT22;8567;52.540;6.434;2022-09-03T05:40:47;21.80;42.40
16901;DHT22;8567;52.540;6.434;2022-09-03T05:43:13;21.80;42.30
16901;DHT22;8567;52.540;6.434;2022-09-03T05:45:42;21.80;42.30
16901;DHT22;8567;52.540;6.434;2022-09-03T05:48:09;21.80;42.30
16901;DHT22;8567;52.540;6.434;2022-09-03T05:50:36;21.80;42.30
16901;DHT22;8567;52.540;6.434;2022-09-03T05:53:03;21.80;42.30
16901;DHT22;8567;52.540;6.434;2022-09-03T05:55:29;21.80;42.30
16901;DHT22;8567;52.540;6.434;2022-09-03T05:57:56;21.80;42.40
16901;DHT22;8567;52.540;6.434;2022-09-03T06:00:23;21.80;42.40
16901;DHT22;8567;52.540;6.434;2022-09-03T06:02:52;21.80;42.30
16901;DHT22;8567;52.540;6.434;2022-09-03T06:05:19;21.80;42.30
16901;DHT22;8567;52.540;6.434;2022-09-03T06:07:45;21.80;42.30
16901;DHT22;8567;52.540;6.434;2022-09-03T06:10:14;21.80;42.40
16901;DHT22;8567;52.540;6.434;2022-09-03T06:12:42;21.80;42.30
16901;DHT22;8567;52.540;6.434;2022-09-03T06:15:14;21.80;42.40
16901;DHT22;8567;52.540;6.434;2022-09-03T06:17:41;21.80;42.40
16901;DHT22;8567;52.540;6.434;2022-09-03T06:20:09;21.80;42.40
16901;DHT22;8567;52.540;6.434;2022-09-03T06:22:36;21.80;42.40
16901;DHT22;8567;52.540;6.434;2022-09-03T06:25:04;21.90;42.50
16901;DHT22;8567;52.540;6.434;2022-09-03T06:27:30;21.90;42.40
16901;DHT22;8567;52.540;6.434;2022-09-03T06:29:57;21.90;42.50
16901;DHT22;8567;52.540;6.434;2022-09-03T06:32:24;21.90;42.60
16901;DHT22;8567;52.540;6.434;2022-09-03T06:34:51;21.90;42.60
16901;DHT22;8567;52.540;6.434;2022-09-03T06:37:19;21.90;42.70
16901;DHT22;8567;52.540;6.434;2022-09-03T06:39:46;21.90;42.60
16901;DHT22;8567;52.540;6.434;2022-09-03T06:42:14;21.90;43.10
16901;DHT22;8567;52.540;6.434;2022-09-03T06:44:42;21.90;42.60
16901;DHT22;8567;52.540;6.434;2022-09-03T06:47:10;21.80;42.70
16901;DHT22;8567;52.540;6.434;2022-09-03T06:49:36;21.80;43.00
16901;DHT22;8567;52.540;6.434;2022-09-03T06:52:03;21.80;42.80
16901;DHT22;8567;52.540;6.434;2022-09-03T06:54:31;21.80;42.80
16901;DHT22;8567;52.540;6.434;2022-09-03T06:56:58;21.80;42.80
16901;DHT22;8567;52.540;6.434;2022-09-03T06:59:25;21.80;42.90
16901;DHT22;8567;52.540;6.434;2022-09-03T07:01:52;21.80;42.80
16901;DHT22;8567;52.540;6.434;2022-09-03T07:04:19;21.70;42.90
16901;DHT22;8567;52.540;6.434;2022-09-03T07:06:49;21.50;43.40
16901;DHT22;8567;52.540;6.434;2022-09-03T07:09:16;21.50;43.50
16901;DHT22;8567;52.540;6.434;2022-09-03T07:11:45;21.10;44.10
16901;DHT22;8567;52.540;6.434;2022-09-03T07:14:12;21.10;44.40
16901;DHT22;8567;52.540;6.434;2022-09-03T07:16:39;21.40;44.00
16901;DHT22;8567;52.540;6.434;2022-09-03T07:19:07;21.50;43.80
16901;DHT22;8567;52.540;6.434;2022-09-03T07:21:35;21.60;43.70
16901;DHT22;8567;52.540;6.434;2022-09-03T07:24:02;21.60;43.70
16901;DHT22;8567;52.540;6.434;2022-09-03T07:26:31;21.60;43.70
16901;DHT22;8567;52.540;6.434;2022-09-03T07:29:00;21.60;43.80
16901;DHT22;8567;52.540;6.434;2022-09-03T07:31:29;21.70;43.70
16901;DHT22;8567;52.540;6.434;2022-09-03T07:33:57;21.60;43.80
16901;DHT22;8567;52.540;6.434;2022-09-03T07:36:25;21.70;43.90
16901;DHT22;8567;52.540;6.434;2022-09-03T07:38:54;21.70;43.80
16901;DHT22;8567;52.540;6.434;2022-09-03T07:41:22;21.70;43.90
16901;DHT22;8567;52.540;6.434;2022-09-03T07:43:50;21.70;43.90
16901;DHT22;8567;52.540;6.434;2022-09-03T07:46:20;21.80;43.70
16901;DHT22;8567;52.540;6.434;2022-09-03T07:48:49;21.90;43.60
16901;DHT22;8567;52.540;6.434;2022-09-03T07:51:17;22.00;43.70
16901;DHT22;8567;52.540;6.434;2022-09-03T07:53:45;22.00;43.80
16901;DHT22;8567;52.540;6.434;2022-09-03T07:56:13;22.10;43.70
16901;DHT22;8567;52.540;6.434;2022-09-03T07:58:40;22.10;43.80
16901;DHT22;8567;52.540;6.434;2022-09-03T08:01:09;22.10;43.70
16901;DHT22;8567;52.540;6.434;2022-09-03T08:03:41;22.20;43.80
16901;DHT22;8567;52.540;6.434;2022-09-03T08:06:09;22.20;44.00
16901;DHT22;8567;52.540;6.434;2022-09-03T08:08:37;22.20;44.10
16901;DHT22;8567;52.540;6.434;2022-09-03T08:11:05;22.20;44.10
16901;DHT22;8567;52.540;6.434;2022-09-03T08:13:36;22.20;44.20
16901;DHT22;8567;52.540;6.434;2022-09-03T08:16:04;22.20;44.30
16901;DHT22;8567;52.540;6.434;2022-09-03T08:18:31;22.30;44.40
16901;DHT22;8567;52.540;6.434;2022-09-03T08:21:04;22.30;44.50
16901;DHT22;8567;52.540;6.434;2022-09-03T08:23:32;22.30;44.60
16901;DHT22;8567;52.540;6.434;2022-09-03T08:26:02;22.30;44.70
16901;DHT22;8567;52.540;6.434;2022-09-03T08:28:28;22.30;44.80
16901;DHT22;8567;52.540;6.434;2022-09-03T08:31:03;22.30;44.90
16901;DHT22;8567;52.540;6.434;2022-09-03T08:33:30;22.30;45.00
16901;DHT22;8567;52.540;6.434;2022-09-03T08:36:07;22.40;45.00
16901;DHT22;8567;52.540;6.434;2022-09-03T08:38:35;22.40;45.20
16901;DHT22;8567;52.540;6.434;2022-09-03T08:41:06;22.40;45.20
16901;DHT22;8567;52.540;6.434;2022-09-03T08:43:45;22.40;45.30
16901;DHT22;8567;52.540;6.434;2022-09-03T08:46:16;22.40;45.30
16901;DHT22;8567;52.540;6.434;2022-09-03T08:48:43;22.40;45.50
16901;DHT22;8567;52.540;6.434;2022-09-03T08:51:13;22.40;45.40
16901;DHT22;8567;52.540;6.434;2022-09-03T08:53:45;22.10;45.50
16901;DHT22;8567;52.540;6.434;2022-09-03T08:56:20;22.00;45.20
16901;DHT22;8567;52.540;6.434;2022-09-03T08:58:47;22.00;45.40
16901;DHT22;8567;52.540;6.434;2022-09-03T09:01:20;21.90;45.30
16901;DHT22;8567;52.540;6.434;2022-09-03T09:03:55;21.90;45.60
16901;DHT22;8567;52.540;6.434;2022-09-03T09:06:34;21.90;45.60
16901;DHT22;8567;52.540;6.434;2022-09-03T09:09:08;21.90;45.80
16901;DHT22;8567;52.540;6.434;2022-09-03T09:11:47;21.90;45.50
16901;DHT22;8567;52.540;6.434;2022-09-03T09:14:19;21.90;45.00
16901;DHT22;8567;52.540;6.434;2022-09-03T09:16:56;21.90;45.10
16901;DHT22;8567;52.540;6.434;2022-09-03T09:19:38;21.90;45.10
16901;DHT22;8567;52.540;6.434;2022-09-03T09:22:13;22.00;44.90
16901;DHT22;8567;52.540;6.434;2022-09-03T09:24:44;22.00;44.90
16901;DHT22;8567;52.540;6.434;2022-09-03T09:27:15;22.00;44.60
16901;DHT22;8567;52.540;6.434;2022-09-03T09:29:45;22.00;44.70
16901;DHT22;8567;52.540;6.434;2022-09-03T09:32:14;22.10;44.60
16901;DHT22;8567;52.540;6.434;2022-09-03T09:34:43;22.10;44.80
16901;DHT22;8567;52.540;6.434;2022-09-03T09:37:13;22.10;44.70
16901;DHT22;8567;52.540;6.434;2022-09-03T09:39:52;22.10;44.80
16901;DHT22;8567;52.540;6.434;2022-09-03T09:42:22;22.10;44.60
16901;DHT22;8567;52.540;6.434;2022-09-03T09:44:49;22.10;44.60
16901;DHT22;8567;52.540;6.434;2022-09-03T09:47:22;22.10;44.50
16901;DHT22;8567;52.540;6.434;2022-09-03T09:49:55;22.20;44.40
16901;DHT22;8567;52.540;6.434;2022-09-03T09:52:25;22.20;44.50
16901;DHT22;8567;52.540;6.434;2022-09-03T09:55:05;22.30;44.50
16901;DHT22;8567;52.540;6.434;2022-09-03T09:57:32;22.30;44.60
16901;DHT22;8567;52.540;6.434;2022-09-03T10:00:04;22.30;44.80
16901;DHT22;8567;52.540;6.434;2022-09-03T10:02:34;22.30;44.90
16901;DHT22;8567;52.540;6.434;2022-09-03T10:05:12;22.30;45.00
16901;DHT22;8567;52.540;6.434;2022-09-03T10:07:41;22.30;44.90
16901;DHT22;8567;52.540;6.434;2022-09-03T10:10:18;22.30;45.20
16901;DHT22;8567;52.540;6.434;2022-09-03T10:12:49;22.40;45.20
16901;DHT22;8567;52.540;6.434;2022-09-03T10:15:27;22.40;45.20
16901;DHT22;8567;52.540;6.434;2022-09-03T10:18:02;22.40;45.30
16901;DHT22;8567;52.540;6.434;2022-09-03T10:20:35;22.40;45.40
16901;DHT22;8567;52.540;6.434;2022-09-03T10:23:10;22.40;45.40
16901;DHT22;8567;52.540;6.434;2022-09-03T10:25:45;22.50;45.30
16901;DHT22;8567;52.540;6.434;2022-09-03T10:28:15;22.50;45.30
16901;DHT22;8567;52.540;6.434;2022-09-03T10:30:54;22.50;45.40
16901;DHT22;8567;52.540;6.434;2022-09-03T10:33:24;22.50;45.40
16901;DHT22;8567;52.540;6.434;2022-09-03T10:35:59;22.60;45.30
16901;DHT22;8567;52.540;6.434;2022-09-03T10:38:33;22.50;44.90
16901;DHT22;8567;52.540;6.434;2022-09-03T10:41:08;22.60;45.10
16901;DHT22;8567;52.540;6.434;2022-09-03T10:43:53;22.60;45.10
16901;DHT22;8567;52.540;6.434;2022-09-03T10:46:26;22.60;44.80
16901;DHT22;8567;52.540;6.434;2022-09-03T10:49:05;22.60;44.80
16901;DHT22;8567;52.540;6.434;2022-09-03T10:51:37;22.60;44.80
16901;DHT22;8567;52.540;6.434;2022-09-03T10:54:31;22.60;44.70
16901;DHT22;8567;52.540;6.434;2022-09-03T10:57:07;22.70;44.60
16901;DHT22;8567;52.540;6.434;2022-09-03T10:59:47;22.70;44.50
16901;DHT22;8567;52.540;6.434;2022-09-03T11:02:34;22.70;44.50
16901;DHT22;8567;52.540;6.434;2022-09-03T11:05:08;22.70;44.20
16901;DHT22;8567;52.540;6.434;2022-09-03T11:07:42;22.70;44.00
16901;DHT22;8567;52.540;6.434;2022-09-03T11:10:16;22.70;43.80
16901;DHT22;8567;52.540;6.434;2022-09-03T11:12:47;22.70;43.70
16901;DHT22;8567;52.540;6.434;2022-09-03T11:15:22;22.80;43.60
16901;DHT22;8567;52.540;6.434;2022-09-03T11:17:53;22.70;43.40
16901;DHT22;8567;52.540;6.434;2022-09-03T11:20:24;22.70;43.40
16901;DHT22;8567;52.540;6.434;2022-09-03T11:22:54;22.80;43.20
16901;DHT22;8567;52.540;6.434;2022-09-03T11:25:26;22.80;43.30
16901;DHT22;8567;52.540;6.434;2022-09-03T11:28:04;22.80;43.30
16901;DHT22;8567;52.540;6.434;2022-09-03T11:30:45;22.80;43.40
16901;DHT22;8567;52.540;6.434;2022-09-03T11:33:18;22.80;43.50
16901;DHT22;8567;52.540;6.434;2022-09-03T11:35:54;22.80;43.60
16901;DHT22;8567;52.540;6.434;2022-09-03T11:38:22;22.80;43.70
16901;DHT22;8567;52.540;6.434;2022-09-03T11:41:09;22.80;43.80
16901;DHT22;8567;52.540;6.434;2022-09-03T11:43:37;22.80;43.90
16901;DHT22;8567;52.540;6.434;2022-09-03T11:46:08;22.80;43.90
16901;DHT22;8567;52.540;6.434;2022-09-03T11:48:39;22.80;44.00
16901;DHT22;8567;52.540;6.434;2022-09-03T11:51:19;22.80;44.10
16901;DHT22;8567;52.540;6.434;2022-09-03T11:53:54;22.80;44.20
16901;DHT22;8567;52.540;6.434;2022-09-03T11:56:23;22.80;44.30
16901;DHT22;8567;52.540;6.434;2022-09-03T11:59:03;22.80;44.30
16901;DHT22;8567;52.540;6.434;2022-09-03T12:01:31;22.90;44.40
16901;DHT22;8567;52.540;6.434;2022-09-03T12:04:02;22.80;44.50
16901;DHT22;8567;52.540;6.434;2022-09-03T12:06:41;22.90;44.40
16901;DHT22;8567;52.540;6.434;2022-09-03T12:09:37;22.90;44.20
16901;DHT22;8567;52.540;6.434;2022-09-03T12:12:23;22.90;43.90
16901;DHT22;8567;52.540;6.434;2022-09-03T12:15:03;22.90;43.70
16901;DHT22;8567;52.540;6.434;2022-09-03T12:17:33;23.00;43.70
16901;DHT22;8567;52.540;6.434;2022-09-03T12:20:01;23.00;43.80
16901;DHT22;8567;52.540;6.434;2022-09-03T12:22:29;23.00;44.00
16901;DHT22;8567;52.540;6.434;2022-09-03T12:25:07;23.00;44.30
16901;DHT22;8567;52.540;6.434;2022-09-03T12:27:36;23.00;44.40
16901;DHT22;8567;52.540;6.434;2022-09-03T12:30:12;23.00;44.60
16901;DHT22;8567;52.540;6.434;2022-09-03T12:32:39;23.10;44.60
16901;DHT22;8567;52.540;6.434;2022-09-03T12:35:12;23.10;44.60
16901;DHT22;8567;52.540;6.434;2022-09-03T12:37:41;23.10;44.50
16901;DHT22;8567;52.540;6.434;2022-09-03T12:40:18;23.10;44.50
16901;DHT22;8567;52.540;6.434;2022-09-03T12:42:47;23.20;44.10
16901;DHT22;8567;52.540;6.434;2022-09-03T12:45:18;23.20;44.30
16901;DHT22;8567;52.540;6.434;2022-09-03T12:47:45;23.30;44.80
16901;DHT22;8567;52.540;6.434;2022-09-03T12:50:13;23.30;44.70
16901;DHT22;8567;52.540;6.434;2022-09-03T12:52:43;23.40;44.50
16901;DHT22;8567;52.540;6.434;2022-09-03T12:55:20;23.40;44.60
16901;DHT22;8567;52.540;6.434;2022-09-03T12:57:55;23.40;44.40
16901;DHT22;8567;52.540;6.434;2022-09-03T13:00:27;23.50;44.70
16901;DHT22;8567;52.540;6.434;2022-09-03T13:02:58;23.50;44.70
16901;DHT22;8567;52.540;6.434;2022-09-03T13:05:29;23.50;44.60
16901;DHT22;8567;52.540;6.434;2022-09-03T13:07:58;23.50;44.70
16901;DHT22;8567;52.540;6.434;2022-09-03T13:10:31;23.50;44.90
16901;DHT22;8567;52.540;6.434;2022-09-03T13:13:03;23.60;45.10
16901;DHT22;8567;52.540;6.434;2022-09-03T13:15:32;23.50;45.20
16901;DHT22;8567;52.540;6.434;2022-09-03T13:18:14;23.60;45.40
16901;DHT22;8567;52.540;6.434;2022-09-03T13:21:02;23.60;45.50
16901;DHT22;8567;52.540;6.434;2022-09-03T13:23:54;23.50;45.70
16901;DHT22;8567;52.540;6.434;2022-09-03T13:26:29;23.60;45.90
16901;DHT22;8567;52.540;6.434;2022-09-03T13:29:17;23.60;45.90
16901;DHT22;8567;52.540;6.434;2022-09-03T13:31:51;23.60;46.30
16901;DHT22;8567;52.540;6.434;2022-09-03T13:34:22;23.60;46.30
16901;DHT22;8567;52.540;6.434;2022-09-03T13:36:54;23.50;46.50
16901;DHT22;8567;52.540;6.434;2022-09-03T13:39:27;23.40;46.60
16901;DHT22;8567;52.540;6.434;2022-09-03T13:42:04;23.40;46.60
16901;DHT22;8567;52.540;6.434;2022-09-03T13:44:40;23.40;46.70
16901;DHT22;8567;52.540;6.434;2022-09-03T13:47:11;23.40;46.70
16901;DHT22;8567;52.540;6.434;2022-09-03T13:49:48;23.40;46.90
16901;DHT22;8567;52.540;6.434;2022-09-03T13:52:38;23.40;47.00
16901;DHT22;8567;52.540;6.434;2022-09-03T13:55:10;23.40;47.20
16901;DHT22;8567;52.540;6.434;2022-09-03T13:57:44;23.40;47.10
16901;DHT22;8567;52.540;6.434;2022-09-03T14:00:22;23.50;47.10
16901;DHT22;8567;52.540;6.434;2022-09-03T14:02:53;23.50;47.10
16901;DHT22;8567;52.540;6.434;2022-09-03T14:05:37;23.50;47.40
16901;DHT22;8567;52.540;6.434;2022-09-03T14:08:12;23.50;47.30
16901;DHT22;8567;52.540;6.434;2022-09-03T14:10:53;23.50;47.40
16901;DHT22;8567;52.540;6.434;2022-09-03T14:13:30;23.50;47.40
16901;DHT22;8567;52.540;6.434;2022-09-03T14:16:06;23.50;47.30
16901;DHT22;8567;52.540;6.434;2022-09-03T14:18:41;23.50;47.40
16901;DHT22;8567;52.540;6.434;2022-09-03T14:21:15;23.50;47.40
16901;DHT22;8567;52.540;6.434;2022-09-03T14:23:46;24.10;46.70
16901;DHT22;8567;52.540;6.434;2022-09-03T14:26:17;25.80;43.60
16901;DHT22;8567;52.540;6.434;2022-09-03T14:28:47;27.90;40.10
16901;DHT22;8567;52.540;6.434;2022-09-03T14:31:22;29.40;37.60
16901;DHT22;8567;52.540;6.434;2022-09-03T14:33:58;29.20;37.50
16901;DHT22;8567;52.540;6.434;2022-09-03T14:36:30;28.50;38.20
16901;DHT22;8567;52.540;6.434;2022-09-03T14:39:11;28.00;39.00
16901;DHT22;8567;52.540;6.434;2022-09-03T14:41:53;27.50;39.50
16901;DHT22;8567;52.540;6.434;2022-09-03T14:44:43;27.20;40.30
16901;DHT22;8567;52.540;6.434;2022-09-03T14:47:24;27.00;40.60
16901;DHT22;8567;52.540;6.434;2022-09-03T14:50:06;26.90;41.40
16901;DHT22;8567;52.540;6.434;2022-09-03T14:52:56;26.80;41.90
16901;DHT22;8567;52.540;6.434;2022-09-03T14:55:29;26.80;42.00
16901;DHT22;8567;52.540;6.434;2022-09-03T14:58:22;26.80;41.90
16901;DHT22;8567;52.540;6.434;2022-09-03T15:00:54;26.80;41.90
16901;DHT22;8567;52.540;6.434;2022-09-03T15:03:38;26.80;42.40
16901;DHT22;8567;52.540;6.434;2022-09-03T15:06:24;26.70;42.20
16901;DHT22;8567;52.540;6.434;2022-09-03T15:09:08;26.60;42.40
16901;DHT22;8567;52.540;6.434;2022-09-03T15:11:47;26.50;42.30
16901;DHT22;8567;52.540;6.434;2022-09-03T15:14:18;26.50;42.20
16901;DHT22;8567;52.540;6.434;2022-09-03T15:16:52;26.50;42.20
16901;DHT22;8567;52.540;6.434;2022-09-03T15:19:38;26.50;42.20
16901;DHT22;8567;52.540;6.434;2022-09-03T15:22:08;26.40;42.50
16901;DHT22;8567;52.540;6.434;2022-09-03T15:24:42;25.30;44.50
16901;DHT22;8567;52.540;6.434;2022-09-03T15:27:16;24.80;45.40
16901;DHT22;8567;52.540;6.434;2022-09-03T15:29:50;24.70;45.90
16901;DHT22;8567;52.540;6.434;2022-09-03T15:32:35;24.70;45.90
16901;DHT22;8567;52.540;6.434;2022-09-03T15:35:06;24.80;45.90
16901;DHT22;8567;52.540;6.434;2022-09-03T15:37:34;24.80;46.00
16901;DHT22;8567;52.540;6.434;2022-09-03T15:40:03;24.80;46.10
16901;DHT22;8567;52.540;6.434;2022-09-03T15:42:31;24.70;46.60
16901;DHT22;8567;52.540;6.434;2022-09-03T15:45:01;24.70;46.80
16901;DHT22;8567;52.540;6.434;2022-09-03T15:47:31;24.70;47.00
16901;DHT22;8567;52.540;6.434;2022-09-03T15:49:59;24.60;47.20
16901;DHT22;8567;52.540;6.434;2022-09-03T15:52:30;24.60;47.50
16901;DHT22;8567;52.540;6.434;2022-09-03T15:55:00;24.60;47.80
16901;DHT22;8567;52.540;6.434;2022-09-03T15:57:29;24.60;47.80
16901;DHT22;8567;52.540;6.434;2022-09-03T15:59:59;24.60;48.00
16901;DHT22;8567;52.540;6.434;2022-09-03T16:02:30;24.60;48.60
16901;DHT22;8567;52.540;6.434;2022-09-03T16:05:01;24.60;48.40
16901;DHT22;8567;52.540;6.434;2022-09-03T16:07:40;24.60;48.70
16901;DHT22;8567;52.540;6.434;2022-09-03T16:10:14;24.70;49.50
16901;DHT22;8567;52.540;6.434;2022-09-03T16:12:44;24.70;50.30
16901;DHT22;8567;52.540;6.434;2022-09-03T16:15:13;24.70;50.00
16901;DHT22;8567;52.540;6.434;2022-09-03T16:17:43;24.70;50.30